Schaupps, Nebraska
Current Conditions -  °F | °C
As of 6:53 PM on Friday 28 Nov 2014 (Local Time) from KODX Reporting Station
Clear Clear  
Wind Chill:   Ceiling: Unl
Heat Index:   Visibility: 10mi
Dew Point: -6°   Wind: 5mph
Humidity: 39%   Direction: 190°S
Pressure: 29.63"   Gusts: NA
Location:  41.3°N, 98.8143°W
Report Text: KODX 290053Z AUTO 19004KT 10SM CLR 08/M06 A2963 RMK AO2 SLP051 T00781056
Loading
Personal Weather Stations






























Interactive Weather Map New forecast layout! Learn more

10-Day Weather Forecast

Advertisements
Track Severe Weather on mobile